Time;durP1;ratioP1;P1;durP2;ratioP2;P2;SDS_P1;SDS_P2;PMS_P1;PMS_P2;Temp;Humidity;BMP_temperature;BMP_pressure;BME280_temperature;BME280_humidity;BME280_pressure;Samples;Min_cycle;Max_cycle;Signal;HPM_P1;HPM_P2
2023/04/13 00:01:10;;;;;;;1.33;0.80;;;;;;;9.83;92.92;97042.81;4189891;28;21117;-80
2023/04/13 00:03:16;;;;;;;1.07;0.80;;;;;;;9.82;93.14;97041.19;4172063;28;20676;-80
2023/04/13 00:05:20;;;;;;;2.50;1.10;;;;;;;9.82;93.84;97038.59;4192278;28;20655;-80
2023/04/13 00:07:26;;;;;;;1.93;0.90;;;;;;;9.80;92.92;97037.88;4193647;28;20635;-80
2023/04/13 00:09:30;;;;;;;1.10;0.63;;;;;;;9.81;93.05;97041.31;4192426;28;20735;-80
2023/04/13 00:11:34;;;;;;;1.00;0.60;;;;;;;9.80;93.33;97043.06;4188221;28;20643;-80
2023/04/13 00:13:46;;;;;;;1.20;0.70;;;;;;;9.82;92.75;97041.19;4187400;28;20731;-80
2023/04/13 00:15:49;;;;;;;2.77;1.00;;;;;;;9.82;92.86;97035.13;4189775;28;20658;-80
2023/04/13 00:17:53;;;;;;;1.43;0.90;;;;;;;9.81;92.89;97039.53;4186527;28;20643;-80
2023/04/13 00:19:57;;;;;;;1.00;0.70;;;;;;;9.81;93.42;97049.94;4192527;28;21019;-80
2023/04/13 00:22:00;;;;;;;1.47;0.70;;;;;;;9.79;92.90;97051.84;4189353;28;21108;-80
2023/04/13 00:24:04;;;;;;;2.77;0.73;;;;;;;9.73;92.68;97049.75;4182659;28;20678;-80
2023/04/13 00:26:07;;;;;;;1.60;0.90;;;;;;;9.73;92.70;97056.75;4174255;28;22095;-81
2023/04/13 00:28:12;;;;;;;2.00;0.83;;;;;;;9.71;92.94;97059.47;4175149;28;20632;-80
2023/04/13 00:30:16;;;;;;;2.53;0.90;;;;;;;9.70;92.48;97054.41;4162163;28;20613;-81
2023/04/13 00:32:19;;;;;;;1.87;0.93;;;;;;;9.70;92.44;97062.19;4183019;28;20679;-81
2023/04/13 00:34:22;;;;;;;1.93;1.00;;;;;;;9.65;92.16;97054.75;4190750;28;20624;-81
2023/04/13 00:36:27;;;;;;;4.13;0.97;;;;;;;9.62;91.72;97062.81;4189295;28;20628;-81
2023/04/13 00:38:31;;;;;;;1.90;1.20;;;;;;;9.64;91.61;97058.31;4178731;28;21199;-81
2023/04/13 00:40:36;;;;;;;1.53;0.80;;;;;;;9.69;91.59;97068.34;4172932;28;20628;-81
2023/04/13 00:42:40;;;;;;;2.17;1.03;;;;;;;9.69;91.27;97065.75;4173663;28;20624;-81
2023/04/13 00:44:44;;;;;;;1.20;0.70;;;;;;;9.66;91.32;97058.19;4194084;28;20654;-81
2023/04/13 00:46:49;;;;;;;1.03;0.70;;;;;;;9.62;90.66;97055.00;4189883;28;20634;-81
2023/04/13 00:48:54;;;;;;;2.80;0.83;;;;;;;9.63;90.72;97051.44;4194152;28;20628;-81
2023/04/13 00:50:57;;;;;;;1.70;0.60;;;;;;;9.65;90.66;97046.09;4189674;28;20695;-81
2023/04/13 00:53:01;;;;;;;1.67;0.87;;;;;;;9.64;90.29;97052.28;4170792;28;20655;-82
2023/04/13 00:55:05;;;;;;;2.50;0.77;;;;;;;9.60;90.38;97049.09;4183391;28;20635;-82
2023/04/13 00:57:08;;;;;;;1.63;0.70;;;;;;;9.54;90.02;97046.16;4186152;28;20638;-82
2023/04/13 00:59:12;;;;;;;1.57;0.70;;;;;;;9.46;90.15;97044.19;4183726;28;20643;-82
2023/04/13 01:01:18;;;;;;;1.70;0.87;;;;;;;9.40;89.99;97043.84;4183860;28;21092;-82
2023/04/13 01:03:21;;;;;;;4.23;0.80;;;;;;;9.28;90.42;97046.63;4180612;28;20636;-82
2023/04/13 01:05:26;;;;;;;1.77;0.80;;;;;;;9.24;90.91;97048.63;4186434;28;20740;-82
2023/04/13 01:07:37;;;;;;;1.20;0.70;;;;;;;9.21;90.82;97048.84;4181544;28;20648;-82
2023/04/13 01:09:45;;;;;;;2.63;1.13;;;;;;;9.22;90.08;97065.31;4160461;28;20698;-82
2023/04/13 01:11:52;;;;;;;1.63;0.70;;;;;;;9.25;90.66;97071.09;4190158;28;20659;-82
2023/04/13 01:14:02;;;;;;;1.83;0.87;;;;;;;9.23;90.00;97069.53;4172420;28;20209;-82
2023/04/13 01:16:14;;;;;;;1.03;0.67;;;;;;;9.23;89.80;97069.53;4188517;28;20631;-82
2023/04/13 01:18:21;;;;;;;1.87;0.90;;;;;;;9.29;90.34;97087.28;4181465;28;20660;-82
2023/04/13 01:20:28;;;;;;;2.40;1.03;;;;;;;9.30;89.99;97079.34;4172259;28;20638;-82
2023/04/13 01:22:33;;;;;;;3.10;0.60;;;;;;;9.30;89.20;97081.13;4178772;28;20647;-82
2023/04/13 01:24:40;;;;;;;2.20;0.90;;;;;;;9.31;89.25;97081.00;4185875;28;20659;-82
2023/04/13 01:26:53;;;;;;;1.03;0.70;;;;;;;9.37;89.35;97079.69;4190678;28;20613;-82
2023/04/13 01:28:59;;;;;;;2.08;0.80;;;;;;;9.33;88.27;97068.69;4173449;28;20698;-82
2023/04/13 01:31:05;;;;;;;2.50;0.80;;;;;;;9.35;88.22;97073.78;4195641;28;20213;-82
2023/04/13 01:33:11;;;;;;;2.40;0.70;;;;;;;9.36;87.63;97055.44;4186306;28;21400;-82
2023/04/13 01:35:15;;;;;;;2.80;0.90;;;;;;;9.37;87.64;97064.91;4177474;28;20658;-82
2023/04/13 01:37:19;;;;;;;2.40;0.87;;;;;;;9.38;87.61;97057.91;4172292;28;20695;-82
2023/04/13 01:39:25;;;;;;;1.45;0.90;;;;;;;9.43;88.14;97056.63;4187118;28;21058;-82
2023/04/13 01:41:37;;;;;;;1.17;0.70;;;;;;;9.45;87.93;97055.53;4186339;28;20283;-82
2023/04/13 01:43:40;;;;;;;1.20;0.60;;;;;;;9.51;87.87;97056.81;4169279;28;20703;-82
2023/04/13 01:45:47;;;;;;;1.20;0.57;;;;;;;9.52;87.54;97058.47;4186329;28;20233;-82
2023/04/13 01:47:54;;;;;;;1.73;0.70;;;;;;;9.53;86.15;97054.91;4191099;28;20719;-82
2023/04/13 01:50:18;;;;;;;2.03;0.68;;;;;;;9.54;86.30;97048.75;4187208;28;20643;-82
2023/04/13 01:52:29;;;;;;;1.70;0.80;;;;;;;9.56;86.85;97052.91;4157423;28;20199;-82
2023/04/13 01:54:35;;;;;;;1.53;0.57;;;;;;;9.56;86.79;97050.31;4185114;28;20659;-82
2023/04/13 01:56:39;;;;;;;1.10;0.70;;;;;;;9.58;86.39;97043.19;4188756;28;20632;-82
2023/04/13 01:58:43;;;;;;;1.60;0.60;;;;;;;9.58;85.82;97042.38;4187889;28;20635;-82
2023/04/13 02:00:53;;;;;;;1.40;0.80;;;;;;;9.56;85.42;97044.25;4167414;28;21244;-82
2023/04/13 02:02:56;;;;;;;1.50;0.70;;;;;;;9.55;85.65;97040.84;4188050;28;20685;-82
2023/04/13 02:04:59;;;;;;;1.83;0.70;;;;;;;9.55;85.09;97037.41;4185630;28;20667;-82
2023/04/13 02:07:03;;;;;;;4.50;0.90;;;;;;;9.57;84.85;97035.50;4163609;28;20726;-82
2023/04/13 02:09:11;;;;;;;2.17;0.60;;;;;;;9.59;85.04;97034.44;4167040;28;20768;-82
2023/04/13 02:11:14;;;;;;;1.37;0.80;;;;;;;9.61;84.88;97036.91;4188853;28;20636;-82
2023/04/13 02:13:17;;;;;;;2.83;0.90;;;;;;;9.56;83.21;97031.25;4189273;28;20757;-82
2023/04/13 02:15:21;;;;;;;1.20;0.50;;;;;;;9.53;83.44;97039.28;4182115;28;20628;-82
2023/04/13 02:17:26;;;;;;;1.83;0.80;;;;;;;9.52;84.36;97037.66;4174308;28;20296;-82
2023/04/13 02:19:29;;;;;;;1.17;0.70;;;;;;;9.51;83.43;97043.81;4164911;28;20641;-82
2023/04/13 02:21:33;;;;;;;4.03;0.80;;;;;;;9.50;83.84;97042.16;4173569;28;20632;-82
2023/04/13 02:23:37;;;;;;;1.23;0.80;;;;;;;9.50;84.23;97043.00;4179054;28;20300;-82
2023/04/13 02:25:42;;;;;;;1.40;0.70;;;;;;;9.52;83.92;97042.88;4181299;28;20671;-82
2023/04/13 02:27:47;;;;;;;1.00;0.60;;;;;;;9.51;83.29;97041.19;4169049;28;21082;-82
2023/04/13 02:29:55;;;;;;;1.77;0.70;;;;;;;9.49;83.37;97038.72;4177369;28;21028;-82
2023/04/13 02:31:58;;;;;;;2.00;0.70;;;;;;;9.50;82.92;97045.59;4189391;28;20650;-82
2023/04/13 02:34:04;;;;;;;1.53;0.70;;;;;;;9.46;82.54;97048.56;4183532;28;20663;-82
2023/04/13 02:36:08;;;;;;;1.93;0.73;;;;;;;9.44;83.18;97050.44;4188949;28;20632;-82
2023/04/13 02:38:14;;;;;;;1.50;0.73;;;;;;;9.45;82.81;97044.31;4174984;28;20641;-82
2023/04/13 02:40:21;;;;;;;2.95;0.77;;;;;;;9.45;82.95;97042.50;4186118;28;20664;-82
2023/04/13 02:42:25;;;;;;;2.23;0.70;;;;;;;9.45;82.83;97042.50;4182520;28;20679;-82
2023/04/13 02:44:29;;;;;;;2.43;0.60;;;;;;;9.48;83.12;97036.25;4185914;28;21242;-82
2023/04/13 02:46:34;;;;;;;1.10;0.60;;;;;;;9.50;83.46;97042.16;4181572;28;20633;-82
2023/04/13 02:48:45;;;;;;;2.23;0.70;;;;;;;9.49;82.88;97049.13;4182673;28;20627;-82
2023/04/13 02:50:50;;;;;;;3.33;0.60;;;;;;;9.50;82.64;97047.34;4190384;28;21211;-82
2023/04/13 02:52:57;;;;;;;1.40;0.80;;;;;;;9.49;81.86;97043.13;4187672;28;21257;-83
2023/04/13 02:55:04;;;;;;;2.30;0.73;;;;;;;9.35;80.67;97046.00;4181686;28;20311;-82
2023/04/13 02:57:21;;;;;;;3.97;0.95;;;;;;;9.24;81.84;97038.22;4164031;28;21211;-82
2023/04/13 02:59:27;;;;;;;1.53;0.60;;;;;;;9.16;82.25;97040.59;4179729;28;20235;-83
2023/04/13 03:01:30;;;;;;;1.87;0.53;;;;;;;9.06;81.86;97031.88;4186360;28;21324;-82
2023/04/13 03:03:34;;;;;;;3.43;1.17;;;;;;;9.02;81.96;97032.22;4169038;28;20644;-82
2023/04/13 03:05:37;;;;;;;1.10;0.70;;;;;;;8.91;83.54;97026.25;4185611;28;20711;-82
2023/04/13 03:07:44;;;;;;;2.38;0.70;;;;;;;8.89;83.89;97041.16;4189204;28;20646;-82
2023/04/13 03:09:47;;;;;;;1.60;0.67;;;;;;;8.91;83.74;97034.84;4186545;28;20202;-82
2023/04/13 03:11:51;;;;;;;2.13;0.90;;;;;;;8.92;83.55;97042.53;4170616;28;20684;-82
2023/04/13 03:14:00;;;;;;;2.65;0.68;;;;;;;8.93;83.72;97044.19;4183362;28;20231;-82
2023/04/13 03:16:04;;;;;;;3.13;0.80;;;;;;;8.90;82.90;97037.56;4170357;28;20675;-82
2023/04/13 03:18:08;;;;;;;4.38;0.80;;;;;;;8.90;82.27;97041.03;4182166;28;20643;-82
2023/04/13 03:20:15;;;;;;;1.27;0.80;;;;;;;8.91;82.74;97044.44;4169096;28;20292;-82
2023/04/13 03:22:29;;;;;;;3.67;0.73;;;;;;;8.93;82.63;97046.81;4181252;28;20680;-82
2023/04/13 03:24:38;;;;;;;2.10;0.90;;;;;;;8.96;82.26;97056.16;4185375;28;20627;-82
2023/04/13 03:26:43;;;;;;;1.87;0.80;;;;;;;8.97;81.61;97053.38;4167878;28;21096;-82
2023/04/13 03:28:52;;;;;;;1.63;0.70;;;;;;;9.04;81.96;97057.19;4179465;28;20687;-82
2023/04/13 03:30:55;;;;;;;2.30;0.77;;;;;;;9.06;82.37;97059.66;4174867;28;20672;-82
2023/04/13 03:32:58;;;;;;;2.37;0.80;;;;;;;9.09;82.80;97059.41;4170691;28;21038;-82
2023/04/13 03:35:06;;;;;;;2.53;0.70;;;;;;;9.11;82.39;97062.72;4189328;28;20722;-81
2023/04/13 03:37:10;;;;;;;2.03;0.70;;;;;;;9.14;83.67;97068.53;4184366;28;20678;-82
2023/04/13 03:39:14;;;;;;;1.70;0.70;;;;;;;9.17;83.75;97063.06;4189269;28;20639;-82
2023/04/13 03:41:19;;;;;;;3.20;0.90;;;;;;;9.18;82.49;97059.50;4172456;28;20640;-82
2023/04/13 03:43:22;;;;;;;2.00;0.80;;;;;;;9.22;82.80;97068.72;4175922;28;20735;-82
2023/04/13 03:45:34;;;;;;;2.00;0.90;;;;;;;9.25;82.49;97071.09;4166112;28;21098;-82
2023/04/13 03:47:43;;;;;;;5.70;1.20;;;;;;;9.29;82.37;97069.06;4194330;28;20751;-82
2023/04/13 03:49:46;;;;;;;2.17;0.80;;;;;;;9.30;81.13;97070.72;4183962;28;20659;-82
2023/04/13 03:51:49;;;;;;;2.30;0.80;;;;;;;9.28;80.25;97068.25;4186042;28;20675;-82
2023/04/13 03:53:52;;;;;;;1.40;0.77;;;;;;;9.25;80.47;97070.28;4179823;28;20649;-82
2023/04/13 03:55:59;;;;;;;2.00;0.77;;;;;;;9.23;80.47;97067.78;4193322;28;21089;-82
2023/04/13 03:58:04;;;;;;;1.83;0.90;;;;;;;9.22;80.08;97071.34;4179083;28;20734;-82
2023/04/13 04:00:12;;;;;;;1.80;1.33;;;;;;;9.18;80.91;97071.69;4198154;28;20627;-82
2023/04/13 04:02:15;;;;;;;3.83;0.80;;;;;;;9.16;80.83;97082.22;4191230;28;21348;-82
2023/04/13 04:04:20;;;;;;;2.87;0.80;;;;;;;9.11;80.23;97084.38;4183698;28;20735;-82
2023/04/13 04:06:27;;;;;;;2.40;0.60;;;;;;;9.01;81.03;97080.81;4196646;28;21283;-82
2023/04/13 04:08:44;;;;;;;1.47;0.80;;;;;;;8.92;81.49;97087.69;4205659;28;20638;-82
2023/04/13 04:10:59;;;;;;;1.53;0.90;;;;;;;8.82;81.50;97079.75;4171947;28;20664;-82
2023/04/13 04:13:05;;;;;;;2.47;0.90;;;;;;;8.67;81.48;97080.13;4168651;28;20636;-82
2023/04/13 04:15:15;;;;;;;4.38;1.50;;;;;;;8.56;83.12;97078.34;4184130;28;20631;-81
2023/04/13 04:17:20;;;;;;;3.80;1.10;;;;;;;8.49;82.29;97097.13;4168572;28;20555;-82
2023/04/13 04:19:23;;;;;;;2.58;1.10;;;;;;;8.46;82.64;97094.75;4181921;28;20643;-82
2023/04/13 04:21:33;;;;;;;4.30;1.00;;;;;;;8.39;83.75;97088.38;4184535;28;20204;-82
2023/04/13 04:23:39;;;;;;;2.75;0.98;;;;;;;8.32;82.54;97084.59;4165325;28;21227;-82
2023/04/13 04:25:44;;;;;;;3.83;1.10;;;;;;;8.36;84.10;97093.81;4188757;28;20223;-82
2023/04/13 04:27:48;;;;;;;1.70;0.80;;;;;;;8.39;82.90;97088.38;4162803;28;20228;-82
2023/04/13 04:29:58;;;;;;;2.85;0.80;;;;;;;8.42;83.49;97092.50;4175145;28;20222;-82
2023/04/13 04:32:09;;;;;;;3.00;0.80;;;;;;;8.33;83.47;97088.84;4165092;28;20226;-82
2023/04/13 04:34:15;;;;;;;1.67;0.90;;;;;;;8.34;85.11;97089.66;4172636;28;20210;-82
2023/04/13 04:36:19;;;;;;;1.17;0.80;;;;;;;8.41;84.72;97094.28;4187802;28;20205;-82
2023/04/13 04:38:31;;;;;;;3.78;1.00;;;;;;;8.47;83.96;97088.63;4187387;28;21286;-82
2023/04/13 04:40:43;;;;;;;1.20;0.70;;;;;;;8.52;84.28;97092.53;4187740;28;20248;-82
2023/04/13 04:42:49;;;;;;;3.45;1.20;;;;;;;8.60;84.38;97094.53;4174465;28;20237;-82
2023/04/13 04:45:10;;;;;;;2.58;1.05;;;;;;;8.68;84.05;97089.59;4163853;28;20238;-82
2023/04/13 04:47:18;;;;;;;2.15;0.93;;;;;;;8.71;83.01;97091.97;4173425;28;20218;-82
2023/04/13 04:49:45;;;;;;;2.20;0.90;;;;;;;8.69;82.13;97089.47;4188024;28;20221;-82
2023/04/13 04:51:48;;;;;;;1.20;0.80;;;;;;;8.60;84.06;97084.97;4176083;28;20213;-82
2023/04/13 04:53:52;;;;;;;3.38;0.90;;;;;;;8.51;82.95;97083.09;4187921;28;20300;-83
2023/04/13 04:55:57;;;;;;;1.73;0.80;;;;;;;8.51;83.12;97085.69;4182036;28;20209;-82
2023/04/13 04:58:24;;;;;;;2.17;1.30;;;;;;;8.44;82.97;97094.06;4183806;28;20770;-82
2023/04/13 05:00:31;;;;;;;3.15;1.30;;;;;;;8.45;83.48;97087.94;4177230;28;20222;-82
2023/04/13 05:02:48;;;;;;;2.78;1.02;;;;;;;8.43;83.60;97083.78;4163634;28;20693;-82
2023/04/13 05:04:53;;;;;;;2.38;1.10;;;;;;;8.46;83.78;97089.56;4183485;28;20220;-82
2023/04/13 05:06:57;;;;;;;4.97;1.42;;;;;;;8.45;83.72;97082.72;4187876;28;20224;-83
2023/04/13 05:09:02;;;;;;;2.60;1.30;;;;;;;8.47;84.47;97086.84;4187547;28;20202;-83
2023/04/13 05:11:08;;;;;;;1.92;0.80;;;;;;;8.50;84.43;97091.00;4165769;28;20210;-82
2023/04/13 05:13:11;;;;;;;2.95;1.00;;;;;;;8.47;83.95;97091.22;4191023;28;20665;-82
2023/04/13 05:15:18;;;;;;;1.45;1.13;;;;;;;8.44;84.69;97088.03;4167957;28;20442;-82
2023/04/13 05:17:24;;;;;;;3.13;1.10;;;;;;;8.45;83.68;97090.53;4173635;28;20802;-82
2023/04/13 05:19:28;;;;;;;2.60;1.10;;;;;;;8.52;84.36;97100.34;4163700;28;20243;-82
2023/04/13 05:21:45;;;;;;;1.67;0.90;;;;;;;8.52;84.35;97102.94;4190706;28;21261;-83
2023/04/13 05:23:48;;;;;;;3.33;1.00;;;;;;;8.54;84.85;97102.81;4188114;28;20868;-82
2023/04/13 05:25:52;;;;;;;2.58;1.00;;;;;;;8.60;83.56;97102.31;4189542;28;20582;-82
2023/04/13 05:27:57;;;;;;;4.47;1.20;;;;;;;8.64;83.26;97101.97;4180233;28;20778;-82
2023/04/13 05:30:04;;;;;;;2.33;0.95;;;;;;;8.61;82.69;97106.59;4199005;28;20634;-83
2023/04/13 05:32:09;;;;;;;2.97;1.00;;;;;;;8.66;83.51;97109.66;4177254;28;20239;-82
2023/04/13 05:34:13;;;;;;;1.93;1.00;;;;;;;8.72;83.41;97111.78;4176258;28;20202;-81
2023/04/13 05:36:25;;;;;;;3.10;1.15;;;;;;;8.77;83.39;97109.69;4184830;28;20634;-82
2023/04/13 05:38:28;;;;;;;3.58;1.25;;;;;;;8.81;83.33;97119.72;4167692;28;20212;-82
2023/04/13 05:40:33;;;;;;;2.90;1.10;;;;;;;8.87;82.31;97118.41;4189017;28;20629;-82
2023/04/13 05:42:38;;;;;;;2.10;1.30;;;;;;;8.92;83.02;97134.50;4185866;28;20204;-82
2023/04/13 05:44:41;;;;;;;5.63;1.23;;;;;;;8.94;81.91;97125.63;4163199;28;20721;-82
2023/04/13 05:46:45;;;;;;;6.00;1.40;;;;;;;9.02;83.11;97128.44;4185479;28;20674;-82
2023/04/13 05:48:48;;;;;;;4.03;1.20;;;;;;;9.07;82.21;97132.34;4174924;28;20292;-82
2023/04/13 05:50:56;;;;;;;2.20;1.10;;;;;;;8.95;81.01;97127.28;4170890;28;20644;-82
2023/04/13 05:53:04;;;;;;;5.35;1.20;;;;;;;8.92;80.84;97129.31;4187813;28;20220;-83
2023/04/13 05:55:18;;;;;;;4.18;1.20;;;;;;;9.01;80.90;97137.22;4186904;28;20585;-82
2023/04/13 05:57:29;;;;;;;2.28;1.13;;;;;;;9.03;81.53;97128.31;4184258;28;20194;-82
2023/04/13 05:59:34;;;;;;;2.20;1.00;;;;;;;8.97;80.36;97133.19;4155258;28;20229;-82
2023/04/13 06:01:38;;;;;;;1.65;0.82;;;;;;;8.93;80.00;97130.00;4186667;28;20639;-83
2023/04/13 06:03:43;;;;;;;2.92;1.15;;;;;;;8.97;80.04;97131.41;4181810;28;20216;-82
2023/04/13 06:05:47;;;;;;;1.90;1.08;;;;;;;8.98;79.83;97135.66;4162472;28;20801;-82
2023/04/13 06:07:52;;;;;;;3.55;1.15;;;;;;;8.95;80.81;97135.09;4180408;28;20226;-82
2023/04/13 06:09:55;;;;;;;3.13;1.17;;;;;;;8.92;80.87;97140.53;4164757;28;20233;-82
2023/04/13 06:11:58;;;;;;;3.30;1.30;;;;;;;8.89;81.12;97139.94;4185814;28;21014;-82
2023/04/13 06:14:02;;;;;;;3.80;1.35;;;;;;;8.85;80.77;97135.91;4170120;28;20648;-81
2023/04/13 06:16:06;;;;;;;3.90;1.30;;;;;;;8.81;80.01;97143.13;4186731;28;20792;-81
2023/04/13 06:18:09;;;;;;;3.70;1.20;;;;;;;8.83;80.33;97145.59;4185711;28;20209;-81
2023/04/13 06:20:14;;;;;;;2.58;1.10;;;;;;;8.83;80.36;97143.81;4183431;28;20637;-82
2023/04/13 06:22:17;;;;;;;4.22;1.33;;;;;;;8.81;80.83;97139.66;4185555;28;20217;-82
2023/04/13 06:24:21;;;;;;;5.07;1.07;;;;;;;8.83;80.37;97140.41;4185485;28;20318;-81
2023/04/13 06:26:27;;;;;;;4.03;1.10;;;;;;;8.84;81.32;97145.50;4182492;28;20685;-82
2023/04/13 06:28:32;;;;;;;3.28;1.65;;;;;;;8.88;81.76;97140.88;4183820;28;20253;-82
2023/04/13 06:30:36;;;;;;;8.10;1.30;;;;;;;8.84;80.97;97147.25;4185309;28;21420;-82
2023/04/13 06:32:43;;;;;;;5.68;1.38;;;;;;;8.83;79.96;97148.19;4184897;28;21840;-82
2023/04/13 06:34:49;;;;;;;2.45;1.05;;;;;;;8.85;80.70;97149.72;4155572;28;20210;-82
2023/04/13 06:36:52;;;;;;;5.53;1.20;;;;;;;8.83;80.76;97141.22;4185416;28;20770;-82
2023/04/13 06:38:58;;;;;;;5.97;1.50;;;;;;;8.78;81.39;97142.50;4179515;28;20206;-82
2023/04/13 06:41:03;;;;;;;5.88;1.45;;;;;;;8.77;80.26;97138.28;4172608;28;20193;-82
2023/04/13 06:43:09;;;;;;;1.92;0.90;;;;;;;8.77;80.74;97144.28;4167369;28;20213;-82
2023/04/13 06:45:46;;;;;;;4.35;1.08;;;;;;;8.77;81.30;97141.69;4151044;28;20288;-83
2023/04/13 06:47:56;;;;;;;2.97;1.20;;;;;;;8.79;81.77;97144.16;4183100;28;20244;-84
2023/04/13 06:50:03;;;;;;;5.63;1.27;;;;;;;8.74;81.30;97144.53;4151690;28;20202;-83
2023/04/13 06:52:07;;;;;;;5.50;3.53;;;;;;;8.79;81.16;97138.97;4165094;28;20214;-83
2023/04/13 06:54:11;;;;;;;7.90;2.85;;;;;;;8.79;81.80;97144.16;4181479;28;20650;-83
2023/04/13 06:56:21;;;;;;;9.32;1.75;;;;;;;8.74;82.70;97141.09;4182960;28;20239;-82
2023/04/13 06:58:24;;;;;;;4.88;1.55;;;;;;;8.75;81.33;97142.75;4184614;28;20262;-80
2023/04/13 07:00:28;;;;;;;3.22;1.48;;;;;;;8.77;81.14;97144.28;4158227;28;20212;-82
2023/04/13 07:02:35;;;;;;;2.47;1.25;;;;;;;8.85;83.16;97152.31;4183522;28;20205;-82
2023/04/13 07:04:39;;;;;;;5.03;1.50;;;;;;;8.87;81.14;97144.41;4192881;28;20255;-81
2023/04/13 07:06:43;;;;;;;2.85;1.05;;;;;;;8.86;81.79;97146.19;4192202;28;20711;-82
2023/04/13 07:08:46;;;;;;;2.17;1.15;;;;;;;8.88;82.36;97146.06;4194214;28;20232;-83
2023/04/13 07:10:53;;;;;;;4.03;1.20;;;;;;;8.85;81.59;97148.91;4183584;28;20235;-82
2023/04/13 07:13:08;;;;;;;5.07;1.50;;;;;;;8.80;82.03;97151.84;4159649;28;20209;-82
2023/04/13 07:15:11;;;;;;;6.75;2.10;;;;;;;8.75;81.29;97155.72;4168710;28;20256;-83
2023/04/13 07:17:15;;;;;;;5.70;1.52;;;;;;;8.70;81.60;97153.47;4180395;28;20832;-83
2023/04/13 07:19:22;;;;;;;7.70;4.00;;;;;;;8.74;80.48;97148.91;4183860;28;20205;-83
2023/04/13 07:21:26;;;;;;;4.63;1.95;;;;;;;8.82;79.83;97154.34;4171878;28;20550;-83
2023/04/13 07:23:34;;;;;;;4.32;1.45;;;;;;;8.89;81.21;97158.13;4167732;28;20700;-83
2023/04/13 07:25:37;;;;;;;4.82;0.98;;;;;;;8.92;78.77;97156.13;4190699;28;20287;-83
2023/04/13 07:27:48;;;;;;;3.92;1.30;;;;;;;9.00;82.07;97158.94;4155078;28;20214;-83
2023/04/13 07:29:53;;;;;;;3.53;1.30;;;;;;;9.08;81.97;97161.78;4180429;28;21256;-82
2023/04/13 07:32:00;;;;;;;2.85;1.20;;;;;;;9.09;80.91;97159.06;4194315;28;20217;-83
2023/04/13 07:34:05;;;;;;;4.00;1.27;;;;;;;9.04;80.33;97150.78;4184095;28;20228;-83
2023/04/13 07:36:15;;;;;;;4.35;1.38;;;;;;;9.03;79.33;97172.53;4196863;28;20691;-82
2023/04/13 07:38:20;;;;;;;3.17;1.48;;;;;;;9.01;78.86;97158.84;4164887;28;20705;-83
2023/04/13 07:40:23;;;;;;;6.65;1.60;;;;;;;8.99;79.72;97152.94;4169182;28;20238;-82
2023/04/13 07:42:30;;;;;;;3.83;1.02;;;;;;;9.03;78.72;97154.31;4181968;28;20215;-83
2023/04/13 07:44:33;;;;;;;3.88;1.50;;;;;;;9.14;79.58;97162.16;4182224;28;20775;-83
2023/04/13 07:46:39;;;;;;;3.10;1.23;;;;;;;9.21;79.41;97165.91;4181112;28;20217;-82
2023/04/13 07:48:42;;;;;;;3.22;1.25;;;;;;;9.34;79.82;97171.00;4181800;28;20240;-83
2023/04/13 07:51:01;;;;;;;3.47;1.10;;;;;;;9.45;78.83;97161.41;4169429;28;20198;-83
2023/04/13 07:53:04;;;;;;;2.37;1.00;;;;;;;9.67;79.13;97171.78;4168370;28;20729;-83
2023/04/13 07:55:08;;;;;;;5.50;1.67;;;;;;;9.72;77.73;97165.25;4172650;28;21760;-83
2023/04/13 07:57:20;;;;;;;2.70;1.00;;;;;;;9.68;77.32;97166.47;4180590;28;20728;-83
2023/04/13 07:59:29;;;;;;;5.10;1.23;;;;;;;9.72;77.56;97167.03;4182561;28;20623;-83
2023/04/13 08:01:34;;;;;;;5.50;1.30;;;;;;;9.80;77.22;97162.03;4168761;28;20681;-82
2023/04/13 08:03:41;;;;;;;4.68;1.63;;;;;;;9.84;76.85;97172.91;4170220;28;20628;-83
2023/04/13 08:05:51;;;;;;;4.40;1.23;;;;;;;9.83;75.91;97167.00;4166529;28;20233;-82
2023/04/13 08:07:55;;;;;;;3.60;1.17;;;;;;;9.82;75.62;97167.94;4185614;28;20634;-82
2023/04/13 08:09:58;;;;;;;3.13;1.40;;;;;;;9.78;77.29;97161.34;4184526;28;20656;-82
2023/04/13 08:12:03;;;;;;;4.57;1.70;;;;;;;9.82;78.62;97165.31;4185923;28;20697;-82
2023/04/13 08:14:08;;;;;;;5.25;1.42;;;;;;;9.89;77.39;97165.56;4181587;28;20615;-82
2023/04/13 08:16:13;;;;;;;3.00;1.85;;;;;;;9.84;76.78;97161.66;4155744;28;20210;-82
2023/04/13 08:18:17;;;;;;;5.22;2.17;;;;;;;9.84;77.91;97160.84;4169151;28;20792;-82
2023/04/13 08:20:21;;;;;;;6.20;2.35;;;;;;;9.81;77.70;97158.50;4165670;28;20598;-82
2023/04/13 08:22:27;;;;;;;5.13;1.57;;;;;;;9.83;76.35;97164.38;4184388;28;20474;-83
2023/04/13 08:24:30;;;;;;;4.93;1.47;;;;;;;9.76;75.81;97166.66;4158287;28;20745;-82
2023/04/13 08:26:34;;;;;;;2.30;0.80;;;;;;;9.69;76.82;97167.28;4188111;28;20730;-83
2023/04/13 08:28:37;;;;;;;4.20;1.17;;;;;;;9.73;78.01;97173.91;4183319;28;20654;-83
2023/04/13 08:30:41;;;;;;;4.88;1.20;;;;;;;9.66;77.75;97175.31;4183841;28;21153;-83
2023/04/13 08:32:44;;;;;;;3.58;1.20;;;;;;;9.69;76.62;97177.69;4179316;28;20224;-83
2023/04/13 08:34:47;;;;;;;4.15;1.42;;;;;;;9.67;77.37;97179.59;4166963;28;20199;-83
2023/04/13 08:36:53;;;;;;;4.15;1.38;;;;;;;9.59;77.02;97185.41;4184754;28;20209;-83
2023/04/13 08:38:59;;;;;;;2.05;1.10;;;;;;;9.51;77.50;97176.53;4182843;28;20289;-83
2023/04/13 08:41:03;;;;;;;5.60;1.30;;;;;;;9.44;78.09;97181.41;4185500;28;20229;-83
2023/04/13 08:43:08;;;;;;;6.57;1.30;;;;;;;9.54;77.33;97184.91;4187376;28;20641;-83
2023/04/13 08:45:13;;;;;;;4.68;1.23;;;;;;;9.48;76.91;97184.59;4183440;28;20217;-83
2023/04/13 08:47:21;;;;;;;8.18;1.48;;;;;;;9.41;77.27;97181.63;4160957;28;20762;-83
2023/04/13 08:49:27;;;;;;;3.30;1.20;;;;;;;9.37;77.72;97195.00;4184029;28;20214;-83
2023/04/13 08:51:50;;;;;;;3.45;1.55;;;;;;;9.39;77.94;97193.09;4186570;28;20205;-83
2023/04/13 08:53:56;;;;;;;6.05;1.60;;;;;;;9.38;78.32;97191.44;4185827;28;20507;-83
2023/04/13 08:56:03;;;;;;;3.58;1.10;;;;;;;9.45;77.51;97192.63;4174326;28;20242;-82
2023/04/13 08:58:07;;;;;;;5.63;1.60;;;;;;;9.42;79.35;97192.88;4165099;28;20260;-83
2023/04/13 09:00:13;;;;;;;3.03;1.10;;;;;;;9.41;77.52;97201.59;4185312;28;20630;-83
2023/04/13 09:02:17;;;;;;;4.25;1.20;;;;;;;9.42;78.97;97198.06;4183883;28;20221;-82
2023/04/13 09:04:30;;;;;;;5.30;1.63;;;;;;;9.42;78.84;97200.66;4166721;28;20232;-83
2023/04/13 09:06:38;;;;;;;2.85;1.75;;;;;;;9.50;80.86;97201.75;4163278;28;21889;-83
2023/04/13 09:08:45;;;;;;;3.85;1.00;;;;;;;9.65;80.40;97204.91;4179893;28;20197;-83
2023/04/13 09:10:50;;;;;;;5.57;2.00;;;;;;;9.60;79.94;97194.84;4187100;28;20516;-83
2023/04/13 09:12:54;;;;;;;5.03;1.60;;;;;;;9.61;80.43;97193.09;4186569;28;20627;-83
2023/04/13 09:14:58;;;;;;;4.53;1.40;;;;;;;9.56;80.13;97198.66;4185569;28;20631;-83
2023/04/13 09:17:05;;;;;;;4.33;1.53;;;;;;;9.60;82.09;97201.84;4182924;28;20209;-83
2023/04/13 09:19:13;;;;;;;11.70;7.53;;;;;;;9.74;81.54;97202.41;4179346;28;20631;-83
2023/04/13 09:21:16;;;;;;;4.15;1.60;;;;;;;9.91;82.17;97196.69;4163051;28;20748;-83
2023/04/13 09:23:19;;;;;;;4.60;1.40;;;;;;;10.02;80.38;97202.72;4184806;28;20214;-83
2023/04/13 09:25:24;;;;;;;7.45;1.73;;;;;;;10.11;77.99;97199.38;4184426;28;20725;-83
2023/04/13 09:27:28;;;;;;;7.60;3.67;;;;;;;10.16;78.52;97199.00;4178260;28;20210;-83
2023/04/13 09:29:32;;;;;;;5.03;1.42;;;;;;;10.19;78.07;97193.53;4169194;28;20660;-82
2023/04/13 09:31:38;;;;;;;5.57;2.10;;;;;;;10.33;77.71;97200.13;4191372;28;20205;-83
2023/04/13 09:33:46;;;;;;;6.03;1.93;;;;;;;10.41;76.39;97202.91;4165885;28;20990;-83
2023/04/13 09:35:49;;;;;;;6.30;2.33;;;;;;;10.35;75.44;97192.16;4185578;28;20665;-83
2023/04/13 09:37:54;;;;;;;3.93;1.70;;;;;;;10.32;76.18;97192.41;4172369;28;20640;-83
2023/04/13 09:40:09;;;;;;;4.67;1.50;;;;;;;10.31;76.22;97190.75;4186515;28;20632;-83
2023/04/13 09:42:14;;;;;;;3.67;1.30;;;;;;;10.42;76.36;97199.38;4189227;28;20628;-83
2023/04/13 09:44:21;;;;;;;6.43;1.50;;;;;;;10.29;75.65;97191.84;4185086;28;20665;-83
2023/04/13 09:46:24;;;;;;;3.67;1.33;;;;;;;10.27;76.49;97189.38;4185231;28;20678;-83
2023/04/13 09:48:27;;;;;;;6.33;2.03;;;;;;;10.27;76.50;97194.59;4184703;28;21219;-83
2023/04/13 09:50:32;;;;;;;5.63;1.70;;;;;;;10.15;77.40;97189.50;4188040;28;20673;-83
2023/04/13 09:52:36;;;;;;;2.55;1.15;;;;;;;10.03;77.34;97183.53;4183106;28;20621;-83
2023/04/13 09:54:39;;;;;;;5.43;1.50;;;;;;;9.89;76.92;97188.16;4179940;28;20569;-83
2023/04/13 09:56:44;;;;;;;5.72;1.48;;;;;;;9.91;76.92;97175.84;4171692;28;21225;-83
2023/04/13 09:58:47;;;;;;;3.30;1.25;;;;;;;9.92;77.32;97182.69;4193615;28;20216;-83
2023/04/13 10:00:53;;;;;;;6.03;1.73;;;;;;;9.93;78.08;97189.56;4167399;28;20260;-83